Time;durP1;ratioP1;P1;durP2;ratioP2;P2;SDS_P1;SDS_P2;PMS_P1;PMS_P2;Temp;Humidity;BMP_temperature;BMP_pressure;BME280_temperature;BME280_humidity;BME280_pressure;Samples;Min_cycle;Max_cycle;Signal;HPM_P1;HPM_P2
2022/09/15 00:02:17;;;;;;;21.77;10.30;;;;;;;18.41;86.32;94562.91;5153722;27;20213;-74
2022/09/15 00:04:44;;;;;;;19.92;10.73;;;;;;;18.37;86.52;94562.66;5153477;27;20252;-72
2022/09/15 00:07:11;;;;;;;24.52;10.77;;;;;;;18.41;86.85;94557.63;5153935;27;20203;-73
2022/09/15 00:09:38;;;;;;;30.27;10.55;;;;;;;18.35;86.88;94567.41;5153441;27;20205;-72
2022/09/15 00:12:05;;;;;;;19.70;9.88;;;;;;;18.34;87.32;94560.56;5153462;27;20697;-72
2022/09/15 00:14:32;;;;;;;18.73;10.85;;;;;;;18.28;88.04;94563.44;5153787;27;20198;-73
2022/09/15 00:16:58;;;;;;;32.03;11.93;;;;;;;18.24;87.95;94562.44;5151185;27;20653;-73
2022/09/15 00:19:27;;;;;;;31.67;11.88;;;;;;;18.22;87.99;94572.41;5152666;27;20198;-74
2022/09/15 00:21:53;;;;;;;32.17;12.45;;;;;;;18.11;88.21;94569.03;5146706;27;20209;-74
2022/09/15 00:24:20;;;;;;;31.10;12.68;;;;;;;18.10;88.73;94567.44;5152789;27;20226;-74
2022/09/15 00:26:47;;;;;;;30.02;13.80;;;;;;;18.00;89.15;94570.91;5153526;27;20221;-73
2022/09/15 00:29:14;;;;;;;22.73;12.10;;;;;;;17.96;88.93;94564.56;5153401;27;20657;-74
2022/09/15 00:31:41;;;;;;;25.98;12.48;;;;;;;17.96;89.47;94571.66;5153139;27;20213;-74
2022/09/15 00:34:07;;;;;;;31.13;13.13;;;;;;;17.93;89.18;94549.31;5153155;27;20206;-74
2022/09/15 00:36:36;;;;;;;28.17;12.98;;;;;;;17.96;90.29;94556.69;5145898;27;20199;-73
2022/09/15 00:39:03;;;;;;;25.92;12.57;;;;;;;18.07;89.91;94552.19;5152203;27;20897;-74
2022/09/15 00:41:30;;;;;;;29.10;13.13;;;;;;;18.10;89.75;94568.22;5153364;27;20191;-73
2022/09/15 00:43:59;;;;;;;33.10;14.13;;;;;;;18.09;89.52;94563.25;5152530;27;20222;-73
2022/09/15 00:46:30;;;;;;;29.63;13.03;;;;;;;18.01;89.40;94553.25;5152478;27;20206;-74
2022/09/15 00:49:03;;;;;;;30.35;13.48;;;;;;;17.97;90.13;94568.00;5146233;27;20190;-73
2022/09/15 00:51:37;;;;;;;30.70;12.68;;;;;;;17.89;90.23;94555.41;5152496;27;20226;-72
2022/09/15 00:54:08;;;;;;;26.67;13.15;;;;;;;17.83;91.35;94564.34;5152719;27;20191;-73
2022/09/15 00:56:38;;;;;;;30.67;13.20;;;;;;;17.74;91.39;94552.78;5153123;27;20202;-74
2022/09/15 00:59:11;;;;;;;29.47;13.13;;;;;;;17.67;91.90;94562.75;5152806;27;20386;-74
2022/09/15 01:01:40;;;;;;;31.35;13.48;;;;;;;17.55;91.77;94549.88;5152944;27;20594;-74
2022/09/15 01:04:07;;;;;;;27.03;12.20;;;;;;;17.69;91.53;94547.53;5152767;27;20218;-73
2022/09/15 01:06:43;;;;;;;38.67;16.67;;;;;;;17.66;91.38;94558.56;5145520;27;20210;-74
2022/09/15 01:09:15;;;;;;;32.40;15.38;;;;;;;17.69;91.67;94565.94;5152420;27;20202;-74
2022/09/15 01:11:43;;;;;;;60.63;30.05;;;;;;;17.51;92.20;94552.25;5152411;27;20206;-74
2022/09/15 01:14:10;;;;;;;72.87;34.13;;;;;;;17.23;93.21;94557.97;5152146;27;20595;-84
2022/09/15 01:16:49;;;;;;;60.87;29.50;;;;;;;17.24;93.73;94553.53;5152686;27;20199;-74
2022/09/15 01:19:46;;;;;;;58.47;26.60;;;;;;;17.30;94.38;94545.38;5150810;27;20221;-74
2022/09/15 01:22:28;;;;;;;52.60;25.03;;;;;;;17.35;94.52;94558.53;5143736;27;20202;-73
2022/09/15 01:25:07;;;;;;;57.42;24.65;;;;;;;17.38;94.17;94544.06;5152471;27;20222;-74
2022/09/15 01:28:18;;;;;;;49.47;24.57;;;;;;;17.45;93.94;94555.13;5152007;27;20656;-74
2022/09/15 01:30:52;;;;;;;58.23;26.67;;;;;;;17.50;93.82;94555.91;5068979;28;20629;-74
2022/09/15 01:33:30;;;;;;;51.97;26.23;;;;;;;17.44;93.34;94543.81;5150707;27;20200;-73
2022/09/15 01:36:04;;;;;;;55.87;27.60;;;;;;;17.38;93.86;94546.69;5152521;27;20195;-73
2022/09/15 01:38:42;;;;;;;45.10;22.87;;;;;;;17.35;93.13;94537.50;5152213;27;20703;-77
2022/09/15 01:41:15;;;;;;;43.70;22.87;;;;;;;17.42;93.65;94548.56;5152349;27;20544;-73
2022/09/15 01:43:49;;;;;;;44.47;21.10;;;;;;;17.56;92.74;94554.09;5152253;27;20233;-73
2022/09/15 01:46:19;;;;;;;39.27;19.57;;;;;;;17.54;92.43;94551.75;5152211;27;20199;-75
2022/09/15 01:48:49;;;;;;;44.43;19.67;;;;;;;17.53;92.63;94552.75;5146146;27;20203;-73
2022/09/15 01:51:16;;;;;;;39.37;20.97;;;;;;;17.48;92.82;94531.75;5154077;27;20223;-74
2022/09/15 01:53:44;;;;;;;41.00;20.65;;;;;;;17.57;92.79;94538.03;5156287;27;20194;-73
2022/09/15 01:56:12;;;;;;;39.87;21.13;;;;;;;17.56;92.96;94546.22;5155880;27;20586;-73
2022/09/15 01:58:41;;;;;;;28.70;16.07;;;;;;;17.45;91.82;94548.03;5156211;27;20199;-73
2022/09/15 02:01:12;;;;;;;36.50;17.57;;;;;;;17.46;91.29;94538.31;5156384;27;20213;-73
2022/09/15 02:03:46;;;;;;;37.10;19.57;;;;;;;17.43;92.66;94536.97;5156223;27;20225;-74
2022/09/15 02:06:20;;;;;;;43.13;20.17;;;;;;;17.45;93.62;94541.97;5150505;27;20195;-74
2022/09/15 02:08:56;;;;;;;36.50;19.90;;;;;;;17.39;93.53;94532.53;5149709;27;20641;-73
2022/09/15 02:11:26;;;;;;;37.67;19.13;;;;;;;17.34;93.89;94530.69;5156256;27;20202;-73
2022/09/15 02:14:02;;;;;;;35.80;19.07;;;;;;;17.31;94.49;94540.94;5156425;27;20621;-73
2022/09/15 02:16:33;;;;;;;39.33;19.30;;;;;;;17.29;94.75;94535.91;5155944;27;20250;-73
2022/09/15 02:19:10;;;;;;;39.00;19.07;;;;;;;17.24;95.25;94535.94;5153808;27;20210;-72
2022/09/15 02:21:46;;;;;;;35.47;17.13;;;;;;;17.29;93.44;94535.13;5155791;27;20198;-73
2022/09/15 02:24:18;;;;;;;34.13;17.67;;;;;;;17.26;93.84;94533.03;5155560;27;20222;-73
2022/09/15 02:26:48;;;;;;;37.57;18.27;;;;;;;17.19;94.17;94528.06;5156141;27;20317;-72
2022/09/15 02:29:18;;;;;;;31.90;16.87;;;;;;;17.08;94.83;94534.34;5142277;27;20657;-73
2022/09/15 02:31:47;;;;;;;34.80;17.50;;;;;;;17.16;95.07;94533.03;5155708;27;20199;-73
2022/09/15 02:34:18;;;;;;;36.33;17.40;;;;;;;17.11;95.24;94523.31;5155762;27;20202;-74
2022/09/15 02:36:47;;;;;;;25.00;14.47;;;;;;;17.03;95.72;94523.81;5155282;27;20203;-72
2022/09/15 02:39:18;;;;;;;27.23;14.47;;;;;;;17.08;95.38;94526.47;5155165;27;20202;-73
2022/09/15 02:41:47;;;;;;;26.97;13.93;;;;;;;17.08;94.82;94523.84;5155548;27;20194;-73
2022/09/15 02:44:14;;;;;;;20.33;10.03;;;;;;;17.02;92.11;94515.16;5155128;27;20225;-73
2022/09/15 02:46:42;;;;;;;25.80;12.57;;;;;;;17.04;92.90;94533.28;5155310;27;20230;-73
2022/09/15 02:49:09;;;;;;;25.37;13.37;;;;;;;17.11;93.57;94536.44;5144766;27;20297;-72
2022/09/15 02:51:37;;;;;;;18.70;9.07;;;;;;;17.01;92.58;94524.09;5154621;27;20230;-72
2022/09/15 02:54:04;;;;;;;22.33;12.13;;;;;;;17.02;93.44;94532.75;5155317;27;20287;-72
2022/09/15 02:56:31;;;;;;;29.30;13.37;;;;;;;17.02;94.74;94523.03;5154868;27;20925;-72
2022/09/15 02:58:58;;;;;;;28.20;13.60;;;;;;;17.08;94.93;94518.59;5155209;27;20198;-73
2022/09/15 03:01:33;;;;;;;27.37;13.07;;;;;;;17.01;94.83;94521.47;5154754;27;20688;-73
2022/09/15 03:04:00;;;;;;;26.20;12.13;;;;;;;16.98;95.68;94514.09;5154586;27;20312;-73
2022/09/15 03:06:33;;;;;;;25.73;12.67;;;;;;;17.02;95.24;94525.69;5147707;27;20677;-73
2022/09/15 03:09:03;;;;;;;22.23;12.60;;;;;;;17.01;95.48;94531.97;5154770;27;20608;-73
2022/09/15 03:11:30;;;;;;;23.63;12.53;;;;;;;16.97;95.57;94535.34;5154613;27;20202;-73
2022/09/15 03:13:59;;;;;;;23.13;12.87;;;;;;;16.98;95.63;94550.06;5150861;27;20209;-72
2022/09/15 03:16:28;;;;;;;20.90;11.80;;;;;;;16.95;95.58;94546.13;5144170;27;20202;-73
2022/09/15 03:18:56;;;;;;;27.77;12.23;;;;;;;16.89;95.56;94555.03;5152182;27;20194;-72
2022/09/15 03:21:23;;;;;;;29.93;12.63;;;;;;;16.88;95.64;94555.31;5153673;27;20198;-72
2022/09/15 03:23:49;;;;;;;23.50;11.10;;;;;;;16.87;95.25;94564.22;5153979;27;20567;-73
2022/09/15 03:26:18;;;;;;;24.40;11.20;;;;;;;16.82;95.26;94562.38;5153691;27;20202;-72
2022/09/15 03:28:45;;;;;;;24.27;11.33;;;;;;;16.82;94.90;94557.13;5154362;27;20203;-72
2022/09/15 03:31:12;;;;;;;25.17;11.07;;;;;;;16.83;94.57;94561.31;5154192;27;20705;-72
2022/09/15 03:33:39;;;;;;;25.93;10.57;;;;;;;16.81;95.20;94562.63;5153966;27;20194;-72
2022/09/15 03:36:06;;;;;;;28.37;11.97;;;;;;;16.78;95.60;94558.69;5154117;27;20195;-73
2022/09/15 03:38:33;;;;;;;28.07;11.37;;;;;;;16.75;95.90;94556.56;5153759;27;20693;-73
2022/09/15 03:41:02;;;;;;;30.77;11.50;;;;;;;16.65;95.33;94546.03;5153746;27;20206;-74
2022/09/15 03:43:32;;;;;;;28.67;11.70;;;;;;;16.52;96.25;94562.25;5154336;27;20198;-74
2022/09/15 03:45:59;;;;;;;20.77;11.03;;;;;;;16.54;97.09;94557.53;5153931;27;20223;-73
2022/09/15 03:48:28;;;;;;;22.63;10.93;;;;;;;16.54;97.32;94552.28;5148627;27;20217;-74
2022/09/15 03:50:55;;;;;;;27.47;10.93;;;;;;;16.57;96.63;94533.41;5153774;27;20652;-73
2022/09/15 03:53:22;;;;;;;20.00;11.00;;;;;;;16.63;96.38;94548.13;5153747;27;20206;-72
2022/09/15 03:55:48;;;;;;;24.07;11.30;;;;;;;16.66;96.34;94546.81;5150847;27;20201;-73
2022/09/15 03:58:16;;;;;;;25.03;11.57;;;;;;;16.61;96.75;94546.81;5149948;27;20201;-73
2022/09/15 04:00:44;;;;;;;22.90;11.60;;;;;;;16.62;96.98;94551.81;5153368;27;20259;-73
2022/09/15 04:03:11;;;;;;;26.20;11.00;;;;;;;16.63;96.51;94549.97;5153543;27;20206;-73
2022/09/15 04:05:39;;;;;;;30.43;11.13;;;;;;;16.58;97.06;94545.50;5153157;27;20711;-73
2022/09/15 04:08:05;;;;;;;20.33;11.33;;;;;;;16.58;97.20;94548.13;5145977;27;20211;-72
2022/09/15 04:10:32;;;;;;;27.13;12.13;;;;;;;16.62;97.19;94564.16;5153762;27;20560;-72
2022/09/15 04:12:59;;;;;;;28.30;11.93;;;;;;;16.60;97.34;94548.66;5153149;27;20209;-73
2022/09/15 04:15:26;;;;;;;26.47;12.30;;;;;;;16.57;97.15;94553.63;5152806;27;20202;-73
2022/09/15 04:17:54;;;;;;;29.37;12.73;;;;;;;16.61;96.89;94559.94;5152162;27;20210;-73
2022/09/15 04:20:21;;;;;;;25.33;12.20;;;;;;;16.54;97.18;94552.28;5153604;27;20198;-73
2022/09/15 04:22:48;;;;;;;26.03;12.00;;;;;;;16.47;97.71;94543.88;5152632;27;20637;-73
2022/09/15 04:25:15;;;;;;;31.13;12.37;;;;;;;16.46;97.34;94550.94;5153017;27;20310;-73
2022/09/15 04:27:42;;;;;;;25.40;11.80;;;;;;;16.36;96.20;94550.13;5152970;27;20199;-74
2022/09/15 04:30:10;;;;;;;28.70;12.47;;;;;;;16.24;96.15;94549.53;5151959;27;20216;-76
2022/09/15 04:32:56;;;;;;;33.23;12.20;;;;;;;16.20;97.32;94561.56;5135681;27;20689;-74
2022/09/15 04:35:24;;;;;;;29.03;12.63;;;;;;;16.28;98.28;94550.56;5128959;27;20665;-73
2022/09/15 04:37:54;;;;;;;34.23;13.23;;;;;;;16.35;98.53;94541.44;5127179;27;20191;-74
2022/09/15 04:40:24;;;;;;;25.67;12.93;;;;;;;16.43;97.57;94555.91;5130457;27;20665;-75
2022/09/15 04:42:51;;;;;;;31.07;14.10;;;;;;;16.43;98.09;94563.78;5130446;27;20203;-74
2022/09/15 04:45:18;;;;;;;34.80;13.93;;;;;;;16.45;97.59;94557.22;5131668;27;20701;-74
2022/09/15 04:47:47;;;;;;;43.77;14.63;;;;;;;16.50;97.04;94550.44;5133391;27;20204;-74
2022/09/15 04:50:14;;;;;;;32.47;13.90;;;;;;;16.50;97.77;94539.94;5147961;27;20283;-74
2022/09/15 04:52:42;;;;;;;49.23;13.93;;;;;;;16.50;97.86;94548.59;5151627;27;20234;-74
2022/09/15 04:55:09;;;;;;;33.27;13.73;;;;;;;16.54;97.63;94554.13;5151654;27;20201;-74
2022/09/15 04:57:36;;;;;;;42.73;13.80;;;;;;;16.57;97.53;94554.41;5152425;27;20201;-74
2022/09/15 05:00:05;;;;;;;43.77;14.63;;;;;;;16.53;98.20;94555.97;5152754;27;20656;-76
2022/09/15 05:02:33;;;;;;;36.03;13.80;;;;;;;16.65;97.72;94555.75;5145643;27;20913;-75
2022/09/15 05:05:00;;;;;;;37.60;13.50;;;;;;;16.64;97.51;94554.97;5152095;27;20230;-75
2022/09/15 05:07:26;;;;;;;38.70;13.33;;;;;;;16.67;97.49;94557.09;5152572;27;20216;-75
2022/09/15 05:09:55;;;;;;;29.43;12.90;;;;;;;16.67;96.26;94554.47;5134802;27;20195;-75
2022/09/15 05:12:21;;;;;;;29.23;14.13;;;;;;;16.66;96.74;94557.31;5140281;27;20205;-76
2022/09/15 05:14:48;;;;;;;40.00;14.50;;;;;;;16.77;97.13;94545.81;5151950;27;20553;-75
2022/09/15 05:17:15;;;;;;;35.03;13.30;;;;;;;16.79;96.26;94539.28;5145632;27;20201;-75
2022/09/15 05:19:42;;;;;;;26.60;12.17;;;;;;;16.80;95.31;94540.84;5132968;27;20207;-76
2022/09/15 05:22:09;;;;;;;27.17;12.87;;;;;;;16.84;95.55;94547.16;5135163;27;20568;-74
2022/09/15 05:24:35;;;;;;;27.17;12.20;;;;;;;16.84;94.93;94541.13;5135632;27;20194;-71
2022/09/15 05:27:06;;;;;;;26.27;12.57;;;;;;;16.91;93.93;94544.28;5134807;27;20213;-77
2022/09/15 05:29:33;;;;;;;29.47;12.27;;;;;;;16.97;94.41;94549.28;5133510;27;20195;-73
2022/09/15 05:31:59;;;;;;;29.27;12.07;;;;;;;17.06;95.01;94539.03;5133377;27;20198;-77
2022/09/15 05:34:26;;;;;;;29.07;12.03;;;;;;;17.15;94.46;94534.88;5138244;27;20199;-81
2022/09/15 05:36:53;;;;;;;28.60;12.80;;;;;;;17.18;94.52;94533.56;5135717;27;20191;-74
2022/09/15 05:39:20;;;;;;;28.73;11.40;;;;;;;17.23;93.60;94529.09;5132910;27;20202;-75
2022/09/15 05:41:47;;;;;;;27.57;10.83;;;;;;;17.28;92.54;94525.69;5133241;27;20202;-76
2022/09/15 05:44:15;;;;;;;20.00;10.50;;;;;;;17.30;91.62;94511.25;5136370;27;20202;-83
2022/09/15 05:46:45;;;;;;;25.70;10.83;;;;;;;17.38;90.82;94517.78;5137166;27;20218;-77
2022/09/15 05:49:11;;;;;;;24.53;10.20;;;;;;;17.49;89.35;94517.53;5134791;27;20200;-80
2022/09/15 05:51:39;;;;;;;25.17;10.40;;;;;;;17.44;88.88;94506.22;5133592;27;20610;-83
2022/09/15 05:54:06;;;;;;;22.70;9.47;;;;;;;17.54;87.32;94517.56;5136617;27;20195;-75
2022/09/15 05:56:33;;;;;;;27.57;9.40;;;;;;;17.59;86.85;94503.63;5136176;27;20575;-80
2022/09/15 05:59:00;;;;;;;18.70;9.17;;;;;;;17.58;86.09;94510.72;5137985;27;20684;-82
2022/09/15 06:01:29;;;;;;;20.47;7.93;;;;;;;17.62;86.93;94510.19;5138053;27;20603;-83
2022/09/15 06:03:57;;;;;;;14.03;7.53;;;;;;;17.64;86.91;94513.34;5133095;27;20284;-76
2022/09/15 06:06:25;;;;;;;13.57;7.23;;;;;;;17.67;86.18;94507.56;5144823;27;20741;-76
2022/09/15 06:08:55;;;;;;;14.57;7.87;;;;;;;17.74;85.16;94511.50;5151122;27;20676;-77
2022/09/15 06:11:23;;;;;;;13.73;6.93;;;;;;;17.80;85.16;94515.69;5144862;27;20259;-77
2022/09/15 06:13:50;;;;;;;15.10;6.53;;;;;;;17.87;85.14;94520.66;5151395;27;20617;-76
2022/09/15 06:16:19;;;;;;;14.00;7.20;;;;;;;17.98;83.06;94522.22;5153419;27;20202;-76
2022/09/15 06:18:49;;;;;;;15.52;7.32;;;;;;;18.11;82.65;94532.19;5151753;27;20207;-76
2022/09/15 06:21:17;;;;;;;15.90;7.80;;;;;;;18.18;83.21;94524.81;5151323;27;20695;-76
2022/09/15 06:23:44;;;;;;;16.52;8.57;;;;;;;18.12;83.48;94510.88;5151805;27;20671;-76
2022/09/15 06:26:13;;;;;;;19.60;9.38;;;;;;;18.23;83.86;94511.66;5151916;27;20222;-76
2022/09/15 06:28:41;;;;;;;23.08;9.32;;;;;;;18.30;84.17;94506.88;5151470;27;20596;-76
2022/09/15 06:31:11;;;;;;;20.75;9.38;;;;;;;18.34;83.91;94510.53;5151523;27;20698;-76
2022/09/15 06:33:41;;;;;;;23.40;9.63;;;;;;;18.47;83.97;94517.84;5151538;27;20198;-76
2022/09/15 06:36:10;;;;;;;22.67;10.20;;;;;;;18.51;84.06;94511.03;5151687;27;20205;-76
2022/09/15 06:38:36;;;;;;;19.33;9.30;;;;;;;18.52;83.53;94504.72;5154936;27;20202;-77
2022/09/15 06:41:04;;;;;;;18.80;9.73;;;;;;;18.56;81.82;94508.38;5155165;27;20198;-76
2022/09/15 06:43:31;;;;;;;23.20;10.93;;;;;;;18.62;81.45;94517.03;5155445;27;20198;-77
2022/09/15 06:46:03;;;;;;;20.73;10.32;;;;;;;18.70;81.03;94519.88;5155318;27;20229;-76
2022/09/15 06:48:31;;;;;;;17.13;8.95;;;;;;;18.79;80.58;94511.44;5151594;27;20230;-76
2022/09/15 06:50:57;;;;;;;20.90;9.63;;;;;;;18.85;79.97;94515.59;5155487;27;20206;-76
2022/09/15 06:53:26;;;;;;;22.77;9.77;;;;;;;18.91;79.07;94522.41;5155439;27;20198;-78
2022/09/15 06:55:53;;;;;;;22.58;9.70;;;;;;;18.87;79.70;94511.66;5154168;27;20251;-76
2022/09/15 06:58:20;;;;;;;24.27;9.90;;;;;;;19.03;79.11;94528.13;5154971;27;20203;-76
2022/09/15 07:00:47;;;;;;;16.50;9.20;;;;;;;19.11;78.52;94543.34;5155141;27;20205;-76
2022/09/15 07:03:14;;;;;;;19.75;9.13;;;;;;;19.09;77.79;94548.91;5154008;27;20194;-77
2022/09/15 07:05:41;;;;;;;18.35;9.00;;;;;;;19.18;76.82;94536.72;5154536;27;20227;-76
2022/09/15 07:08:07;;;;;;;17.33;8.25;;;;;;;19.23;77.19;94544.59;5154374;27;20704;-75
2022/09/15 07:10:36;;;;;;;19.80;8.73;;;;;;;19.32;77.37;94551.91;5154231;27;20228;-76
2022/09/15 07:13:03;;;;;;;18.77;8.00;;;;;;;19.37;77.45;94562.41;5154445;27;20202;-76
2022/09/15 07:15:30;;;;;;;17.30;7.88;;;;;;;19.42;77.29;94557.94;5153852;27;20198;-76
2022/09/15 07:17:58;;;;;;;13.68;7.25;;;;;;;19.51;77.05;94560.78;5147407;27;20215;-76
2022/09/15 07:20:26;;;;;;;16.90;7.40;;;;;;;19.61;76.50;94556.22;5147788;27;20204;-77
2022/09/15 07:22:53;;;;;;;15.05;7.32;;;;;;;19.71;76.31;94568.53;5154468;27;20555;-77
2022/09/15 07:25:19;;;;;;;15.35;6.95;;;;;;;19.80;76.10;94572.13;5154232;27;20211;-76
2022/09/15 07:27:48;;;;;;;16.52;6.78;;;;;;;19.89;75.10;94577.59;5151658;27;20195;-77
2022/09/15 07:30:15;;;;;;;15.93;7.15;;;;;;;19.96;74.79;94576.22;5151645;27;20195;-75
2022/09/15 07:32:42;;;;;;;14.98;7.25;;;;;;;20.04;74.62;94578.25;5154391;27;20208;-76
2022/09/15 07:35:09;;;;;;;17.42;7.30;;;;;;;20.13;74.32;94573.94;5154654;27;20241;-77
2022/09/15 07:37:36;;;;;;;16.45;6.68;;;;;;;20.15;73.60;94577.09;5154078;27;20629;-77
2022/09/15 07:40:04;;;;;;;14.52;6.88;;;;;;;20.23;72.70;94583.63;5154257;27;20195;-77
2022/09/15 07:42:31;;;;;;;20.85;6.05;;;;;;;20.31;71.91;94577.78;5154035;27;20198;-77
2022/09/15 07:44:59;;;;;;;13.05;5.38;;;;;;;20.42;70.86;94571.31;5153970;27;20206;-76
2022/09/15 07:47:26;;;;;;;13.20;5.45;;;;;;;20.49;70.20;94570.97;5151249;27;20226;-76
2022/09/15 07:49:53;;;;;;;9.60;4.70;;;;;;;20.62;68.89;94560.50;5152990;27;20194;-76
2022/09/15 07:52:19;;;;;;;12.52;5.47;;;;;;;20.72;68.44;94570.94;5153656;27;20583;-76
2022/09/15 07:54:46;;;;;;;12.80;5.00;;;;;;;20.82;68.45;94554.97;5154216;27;20224;-77
2022/09/15 07:57:13;;;;;;;12.85;5.28;;;;;;;20.90;67.94;94572.84;5153524;27;20202;-77
2022/09/15 07:59:40;;;;;;;10.50;4.80;;;;;;;21.00;67.49;94564.00;5154033;27;20194;-76
2022/09/15 08:02:14;;;;;;;13.95;5.25;;;;;;;21.10;66.50;94571.81;5154041;27;20233;-76
2022/09/15 08:04:41;;;;;;;10.15;5.43;;;;;;;21.18;66.34;94563.22;5153632;27;20688;-77
2022/09/15 08:07:08;;;;;;;8.32;5.68;;;;;;;21.25;65.77;94561.03;5153961;27;20233;-76
2022/09/15 08:09:36;;;;;;;16.17;6.18;;;;;;;21.46;66.26;94561.53;5153405;27;20210;-76
2022/09/15 08:12:04;;;;;;;14.30;5.85;;;;;;;21.53;66.26;94563.81;5153484;27;20198;-76
2022/09/15 08:14:31;;;;;;;16.15;5.63;;;;;;;21.60;66.34;94565.00;5153589;27;20203;-77
2022/09/15 08:16:59;;;;;;;17.10;5.60;;;;;;;21.72;65.36;94553.97;5151349;27;20195;-77
2022/09/15 08:19:28;;;;;;;20.75;5.60;;;;;;;21.83;64.77;94547.44;5149937;27;20271;-75
2022/09/15 08:21:55;;;;;;;16.80;6.22;;;;;;;21.92;64.58;94549.16;5153669;27;20639;-77
2022/09/15 08:24:22;;;;;;;16.08;5.70;;;;;;;22.12;63.28;94547.22;5152999;27;20202;-76
2022/09/15 08:26:49;;;;;;;13.65;5.18;;;;;;;22.30;62.80;94541.09;5152960;27;20318;-76
2022/09/15 08:29:17;;;;;;;16.05;5.10;;;;;;;22.42;61.77;94538.75;5153605;27;20301;-76
2022/09/15 08:31:44;;;;;;;14.57;5.22;;;;;;;22.49;61.69;94534.59;5152873;27;20557;-77
2022/09/15 08:34:12;;;;;;;13.15;5.95;;;;;;;22.59;61.71;94537.06;5153088;27;20207;-77
2022/09/15 08:36:41;;;;;;;13.63;4.95;;;;;;;22.72;61.94;94540.81;5152894;27;20661;-77
2022/09/15 08:39:08;;;;;;;12.63;4.85;;;;;;;22.84;61.00;94535.78;5152478;27;20657;-76
2022/09/15 08:41:38;;;;;;;13.02;5.20;;;;;;;22.98;60.89;94528.59;5153066;27;20198;-76
2022/09/15 08:44:16;;;;;;;14.18;5.70;;;;;;;23.14;60.69;94529.06;5152826;27;20198;-76
2022/09/15 08:46:50;;;;;;;17.52;5.15;;;;;;;23.31;60.06;94537.16;5152133;27;20209;-76
2022/09/15 08:49:24;;;;;;;10.85;5.13;;;;;;;23.47;59.59;94537.59;5152275;27;20285;-77
2022/09/15 08:51:53;;;;;;;15.88;5.85;;;;;;;23.60;59.37;94526.16;5152461;27;20226;-77
2022/09/15 08:54:24;;;;;;;11.27;5.10;;;;;;;23.79;58.62;94521.44;5149144;27;20198;-77
2022/09/15 08:56:51;;;;;;;12.27;5.35;;;;;;;23.95;57.76;94517.31;5152750;27;20595;-77
2022/09/15 08:59:20;;;;;;;18.38;5.78;;;;;;;24.13;57.21;94512.88;5145389;27;20203;-77
2022/09/15 09:01:57;;;;;;;18.10;5.97;;;;;;;24.28;56.53;94505.31;5151802;27;20205;-76
2022/09/15 09:04:38;;;;;;;13.52;5.93;;;;;;;24.50;56.17;94515.06;5152616;27;20668;-76
2022/09/15 09:07:22;;;;;;;11.30;5.57;;;;;;;24.70;55.51;94500.44;5152222;27;20696;-77
2022/09/15 09:09:56;;;;;;;14.65;6.20;;;;;;;24.96;54.56;94503.97;5151780;27;20191;-77
2022/09/15 09:12:41;;;;;;;12.57;5.68;;;;;;;25.19;53.52;94500.06;5152793;27;20247;-76
2022/09/15 09:15:26;;;;;;;14.85;5.53;;;;;;;25.50;53.71;94499.13;5152412;27;20190;-76
2022/09/15 09:18:22;;;;;;;13.63;6.35;;;;;;;25.77;51.97;94488.88;5146976;27;20199;-77
2022/09/15 09:20:57;;;;;;;16.10;6.07;;;;;;;26.07;50.44;94495.09;5152197;27;20198;-76
2022/09/15 09:23:30;;;;;;;24.02;5.97;;;;;;;26.35;50.35;94485.59;5152449;27;20229;-77
2022/09/15 09:25:57;;;;;;;13.63;5.88;;;;;;;26.74;50.58;94500.47;5152091;27;20211;-76
2022/09/15 09:28:31;;;;;;;16.42;5.80;;;;;;;27.12;50.23;94494.28;5146453;27;20199;-76
2022/09/15 09:31:04;;;;;;;15.43;5.55;;;;;;;27.36;49.17;94479.16;5152755;27;20194;-77
2022/09/15 09:33:40;;;;;;;11.80;5.10;;;;;;;27.54;48.13;94471.81;5152526;27;20202;-76
2022/09/15 09:36:09;;;;;;;16.23;5.63;;;;;;;27.74;47.56;94473.66;5152132;27;20612;-75
2022/09/15 09:38:42;;;;;;;17.25;6.03;;;;;;;27.95;47.70;94465.56;5152330;27;20207;-76
2022/09/15 09:41:14;;;;;;;16.08;5.32;;;;;;;28.20;46.97;94477.13;5152468;27;20201;-76
2022/09/15 09:43:42;;;;;;;14.27;5.53;;;;;;;28.39;45.76;94485.38;5145210;27;20211;-76
2022/09/15 09:46:14;;;;;;;15.27;5.45;;;;;;;28.48;45.83;94486.84;5152482;27;20226;-76
2022/09/15 09:48:45;;;;;;;12.02;4.50;;;;;;;28.72;44.94;94485.28;5150459;27;20195;-76
2022/09/15 09:51:31;;;;;;;12.95;5.28;;;;;;;29.02;44.14;94487.38;5152004;27;20592;-76
2022/09/15 09:54:06;;;;;;;19.05;5.82;;;;;;;29.33;43.87;94492.09;5151891;27;20212;-77
2022/09/15 09:56:33;;;;;;;9.13;5.18;;;;;;;29.29;42.39;94493.91;5151525;27;20204;-77
2022/09/15 09:59:02;;;;;;;10.95;5.65;;;;;;;29.53;41.03;94483.09;5154877;27;20198;-78
2022/09/15 10:01:30;;;;;;;15.65;5.50;;;;;;;29.71;42.20;94487.06;5153755;27;20202;-76
2022/09/15 10:04:13;;;;;;;11.35;5.32;;;;;;;30.04;42.54;94483.34;5151775;27;20229;-76
2022/09/15 10:06:41;;;;;;;13.45;5.70;;;;;;;30.30;41.91;94481.69;5152415;27;20214;-76
2022/09/15 10:09:16;;;;;;;14.48;5.38;;;;;;;30.45;41.60;94482.09;5151999;27;20592;-76
2022/09/15 10:11:45;;;;;;;10.00;4.32;;;;;;;30.60;40.54;94486.63;5152476;27;20577;-77
2022/09/15 10:14:25;;;;;;;10.65;4.60;;;;;;;30.94;39.95;94477.84;5156117;27;20560;-76
2022/09/15 10:17:01;;;;;;;15.65;4.97;;;;;;;31.24;39.96;94484.28;5154599;27;20217;-76
2022/09/15 10:19:29;;;;;;;15.48;5.20;;;;;;;31.50;38.67;94482.91;5154211;27;20202;-76
2022/09/15 10:21:57;;;;;;;15.07;5.32;;;;;;;31.86;37.71;94480.53;5155995;27;20203;-76
2022/09/15 10:24:33;;;;;;;16.40;5.07;;;;;;;32.26;38.06;94473.97;5155632;27;20203;-76
2022/09/15 10:27:08;;;;;;;12.52;4.70;;;;;;;32.76;37.30;94470.94;5156009;27;20214;-76
2022/09/15 10:29:39;;;;;;;9.18;4.38;;;;;;;32.97;34.74;94463.16;5142412;27;20201;-76
2022/09/15 10:32:28;;;;;;;16.98;4.80;;;;;;;33.31;34.81;94465.91;5155985;27;20198;-76
2022/09/15 10:35:03;;;;;;;11.68;4.53;;;;;;;33.73;34.32;94468.38;5146630;27;20210;-76
2022/09/15 10:37:34;;;;;;;15.20;4.68;;;;;;;34.02;34.24;94471.00;5153085;27;20213;-77
2022/09/15 10:40:17;;;;;;;13.98;3.90;;;;;;;34.18;33.95;94466.16;5155883;27;20285;-77
2022/09/15 10:42:50;;;;;;;18.70;5.00;;;;;;;34.30;33.68;94462.41;5155898;27;20221;-77
2022/09/15 10:45:32;;;;;;;13.63;4.00;;;;;;;34.25;32.29;94470.09;5155240;27;20305;-76
2022/09/15 10:48:29;;;;;;;12.98;4.68;;;;;;;34.10;30.70;94469.97;5153931;27;20210;-77
2022/09/15 10:51:02;;;;;;;10.23;3.80;;;;;;;33.97;29.68;94457.84;5135064;27;20202;-77
2022/09/15 10:53:47;;;;;;;16.88;3.90;;;;;;;33.81;30.35;94451.13;5155164;27;20199;-76
2022/09/15 10:56:24;;;;;;;8.60;3.47;;;;;;;33.97;29.40;94454.38;5155603;27;20198;-77
2022/09/15 10:59:02;;;;;;;12.25;3.35;;;;;;;34.10;29.55;94455.69;5155049;27;20198;-77
2022/09/15 11:01:57;;;;;;;13.35;3.53;;;;;;;33.95;29.05;94452.03;5154938;27;20598;-77
2022/09/15 11:04:49;;;;;;;11.60;3.72;;;;;;;33.54;28.57;94450.41;5154957;27;20677;-76
2022/09/15 11:07:29;;;;;;;10.52;3.35;;;;;;;33.19;29.23;94450.75;5154988;27;20283;-76
2022/09/15 11:10:04;;;;;;;13.60;3.45;;;;;;;32.54;29.98;94428.66;5154990;27;20205;-77
2022/09/15 11:12:45;;;;;;;8.27;3.15;;;;;;;32.07;31.33;94426.34;5154721;27;20672;-77
2022/09/15 11:15:25;;;;;;;10.15;3.20;;;;;;;31.81;31.41;94426.25;5154613;27;20194;-76
2022/09/15 11:18:08;;;;;;;13.80;3.20;;;;;;;31.51;31.80;94423.44;5149975;27;20285;-76
2022/09/15 11:20:54;;;;;;;10.88;3.42;;;;;;;31.31;32.87;94419.91;5147970;27;20195;-77
2022/09/15 11:23:26;;;;;;;13.10;3.40;;;;;;;31.30;32.82;94422.97;5155198;27;20202;-77
2022/09/15 11:25:59;;;;;;;8.15;3.33;;;;;;;31.29;33.25;94416.81;5154504;27;20225;-77
2022/09/15 11:28:33;;;;;;;12.27;3.55;;;;;;;31.53;32.91;94410.41;5154521;27;20211;-74
2022/09/15 11:31:05;;;;;;;14.70;3.50;;;;;;;31.86;32.87;94410.59;5154891;27;20198;-78
2022/09/15 11:33:43;;;;;;;11.98;2.85;;;;;;;32.33;29.53;94409.47;5154531;27;20205;-82
2022/09/15 11:36:14;;;;;;;8.85;2.97;;;;;;;32.62;29.41;94397.25;5147526;27;20202;-77
2022/09/15 11:38:48;;;;;;;7.53;3.00;;;;;;;32.91;29.05;94409.94;5154920;27;20201;-81